Time;durP1;ratioP1;P1;durP2;ratioP2;P2;SDS_P1;SDS_P2;PMS_P1;PMS_P2;Temp;Humidity;BMP_temperature;BMP_pressure;BME280_temperature;BME280_humidity;BME280_pressure;Samples;Min_cycle;Max_cycle;Signal;HPM_P1;HPM_P2
2023/07/03 00:00:29;;;;;;;23.50;10.65;;;20.10;79.30;;;;;;5044724;28;20017;-80
2023/07/03 00:02:55;;;;;;;26.95;10.07;;;20.10;79.30;;;;;;5049071;28;20017;-80
2023/07/03 00:05:22;;;;;;;20.83;9.40;;;20.10;79.30;;;;;;5047344;28;20106;-80
2023/07/03 00:07:47;;;;;;;22.38;9.68;;;20.10;79.40;;;;;;5043839;28;20032;-79
2023/07/03 00:10:14;;;;;;;24.20;10.45;;;20.10;79.50;;;;;;5044828;28;20393;-78
2023/07/03 00:12:40;;;;;;;21.50;8.75;;;20.10;80.20;;;;;;5044026;28;20025;-80
2023/07/03 00:15:06;;;;;;;25.27;10.38;;;20.10;79.50;;;;;;5040819;28;20017;-80
2023/07/03 00:17:32;;;;;;;20.75;9.80;;;20.10;79.40;;;;;;5043354;28;20021;-80
2023/07/03 00:19:57;;;;;;;23.45;10.07;;;20.10;79.50;;;;;;5058578;28;20031;-80
2023/07/03 00:22:23;;;;;;;22.50;9.90;;;20.10;79.50;;;;;;5060156;28;20359;-80
2023/07/03 00:24:49;;;;;;;27.50;10.18;;;20.10;79.50;;;;;;5060064;28;20083;-80
2023/07/03 00:27:15;;;;;;;21.95;9.57;;;20.10;79.60;;;;;;5065668;28;20415;-79
2023/07/03 00:29:40;;;;;;;24.98;9.40;;;20.00;79.50;;;;;;5064654;28;20040;-80
2023/07/03 00:32:06;;;;;;;29.33;9.88;;;20.10;79.60;;;;;;5063036;28;20028;-79
2023/07/03 00:34:32;;;;;;;19.88;9.35;;;20.00;79.60;;;;;;5061254;28;20036;-79
2023/07/03 00:36:58;;;;;;;23.63;10.68;;;20.00;79.60;;;;;;5059700;28;20082;-79
2023/07/03 00:39:23;;;;;;;22.70;10.02;;;20.00;79.60;;;;;;5061675;28;20021;-79
2023/07/03 00:41:49;;;;;;;25.02;10.75;;;20.00;79.60;;;;;;5058331;28;20017;-80
2023/07/03 00:44:18;;;;;;;20.90;8.98;;;20.00;79.60;;;;;;5062646;28;20542;-80
2023/07/03 00:46:47;;;;;;;24.83;9.05;;;20.00;79.60;;;;;;5061115;28;20043;-80
2023/07/03 00:49:13;;;;;;;23.42;10.63;;;20.00;79.60;;;;;;5060930;28;20550;-77
2023/07/03 00:51:48;;;;;;;26.35;10.15;;;20.00;79.60;;;;;;5056717;28;20029;-80
2023/07/03 00:54:14;;;;;;;21.23;9.20;;;20.00;79.60;;;;;;5058904;28;20081;-80
2023/07/03 00:56:40;;;;;;;24.60;10.77;;;20.00;79.50;;;;;;5059019;28;20025;-80
2023/07/03 00:59:06;;;;;;;23.02;8.93;;;20.00;79.50;;;;;;5064792;28;20108;-80
2023/07/03 01:01:34;;;;;;;21.98;9.77;;;20.00;79.50;;;;;;5063158;28;20044;-80
2023/07/03 01:04:10;;;;;;;29.10;10.00;;;20.00;79.50;;;;;;5059049;28;20016;-79
2023/07/03 01:06:40;;;;;;;23.85;9.32;;;20.00;79.60;;;;;;5059177;28;20029;-80
2023/07/03 01:09:07;;;;;;;;;;;20.00;79.50;;;;;;5058075;28;20060;-80
2023/07/03 01:11:33;;;;;;;22.95;9.90;;;20.00;79.50;;;;;;5038789;28;20323;-80
2023/07/03 01:14:01;;;;;;;22.90;9.82;;;20.00;79.60;;;;;;5053767;28;20104;-80
2023/07/03 01:16:30;;;;;;;22.52;9.68;;;20.00;79.60;;;;;;5058450;28;20029;-80
2023/07/03 01:18:59;;;;;;;22.80;10.35;;;20.00;79.70;;;;;;5059268;28;20057;-80
2023/07/03 01:21:44;;;;;;;22.17;9.68;;;20.00;79.80;;;;;;5022488;28;20025;-80
2023/07/03 01:24:14;;;;;;;22.02;9.60;;;20.00;79.80;;;;;;5034456;28;20029;-80
2023/07/03 01:26:43;;;;;;;22.80;10.38;;;20.00;79.90;;;;;;5036355;28;20024;-79
2023/07/03 01:29:10;;;;;;;23.70;9.43;;;20.00;79.90;;;;;;5039063;28;20511;-80
2023/07/03 01:31:38;;;;;;;24.75;10.60;;;20.00;79.90;;;;;;5042054;28;20017;-79
2023/07/03 01:34:06;;;;;;;31.38;10.30;;;20.00;79.90;;;;;;5043588;28;20025;-80
2023/07/03 01:36:33;;;;;;;21.48;9.95;;;20.00;79.90;;;;;;5037482;28;20049;-80
2023/07/03 01:39:00;;;;;;;28.63;10.20;;;20.00;80.00;;;;;;5037441;28;20025;-80
2023/07/03 01:41:27;;;;;;;19.05;9.40;;;20.60;80.30;;;;;;5036292;28;20049;-79
2023/07/03 01:43:53;;;;;;;22.65;10.25;;;20.00;80.00;;;;;;5044912;28;20443;-79
2023/07/03 01:46:19;;;;;;;23.90;9.90;;;20.00;80.00;;;;;;5046791;28;20097;-79
2023/07/03 01:48:45;;;;;;;26.08;11.05;;;20.00;80.10;;;;;;5030349;28;20091;-80
2023/07/03 01:51:18;;;;;;;26.98;10.30;;;20.00;80.00;;;;;;5042832;28;20018;-80
2023/07/03 01:54:01;;;;;;;21.83;9.57;;;20.00;80.10;;;;;;5041172;28;20063;-79
2023/07/03 01:56:33;;;;;;;23.20;9.95;;;20.00;80.10;;;;;;5041936;28;20029;-80
2023/07/03 01:59:10;;;;;;;29.10;10.15;;;20.00;80.10;;;;;;5049215;28;20451;-80
2023/07/03 02:01:49;;;;;;;23.88;9.73;;;20.00;80.10;;;;;;5045314;28;20035;-80
2023/07/03 02:04:42;;;;;;;26.02;9.18;;;20.00;80.00;;;;;;5046766;28;20389;-80
2023/07/03 02:07:10;;;;;;;23.30;9.40;;;20.00;80.00;;;;;;5045017;28;20041;-80
2023/07/03 02:09:37;;;;;;;25.40;9.27;;;20.00;80.10;;;;;;5041209;28;20032;-79
2023/07/03 02:12:06;;;;;;;28.63;8.70;;;20.00;80.00;;;;;;5039562;28;20021;-79
2023/07/03 02:14:34;;;;;;;20.63;9.93;;;20.00;80.00;;;;;;5045157;28;20100;-80
2023/07/03 02:17:01;;;;;;;22.30;9.65;;;20.00;80.00;;;;;;5047732;28;20031;-80
2023/07/03 02:19:31;;;;;;;23.40;9.75;;;20.00;80.00;;;;;;5056630;28;20048;-80
2023/07/03 02:21:57;;;;;;;32.67;9.90;;;19.90;79.90;;;;;;5066557;28;20025;-79
2023/07/03 02:24:23;;;;;;;21.13;9.35;;;19.90;79.90;;;;;;5064977;28;20488;-79
2023/07/03 02:26:49;;;;;;;24.73;8.93;;;19.90;79.80;;;;;;5064051;28;20021;-79
2023/07/03 02:29:15;;;;;;;24.02;10.05;;;19.90;79.80;;;;;;5065291;28;20530;-79
2023/07/03 02:31:41;;;;;;;26.73;10.48;;;19.90;79.80;;;;;;5064622;28;20036;-80
2023/07/03 02:34:06;;;;;;;21.90;10.00;;;19.90;79.90;;;;;;5067877;28;20040;-80
2023/07/03 02:36:39;;;;;;;21.15;9.55;;;19.90;79.90;;;;;;5061505;28;20024;-80
2023/07/03 02:39:05;;;;;;;21.80;9.52;;;19.90;80.00;;;;;;5066365;28;20381;-80
2023/07/03 02:41:32;;;;;;;23.92;10.32;;;19.90;80.00;;;;;;5061809;28;20033;-80
2023/07/03 02:43:57;;;;;;;22.20;8.60;;;19.90;80.80;;;;;;5067098;28;20115;-79
2023/07/03 02:46:23;;;;;;;23.02;8.95;;;19.90;80.00;;;;;;5064720;28;20099;-80
2023/07/03 02:48:49;;;;;;;24.63;8.68;;;19.90;80.00;;;;;;5063409;28;20024;-80
2023/07/03 02:51:14;;;;;;;28.50;9.63;;;19.90;80.00;;;;;;5060307;28;20711;-80
2023/07/03 02:53:45;;;;;;;20.95;9.23;;;19.90;80.10;;;;;;5066971;28;20032;-80
2023/07/03 02:56:11;;;;;;;22.63;9.18;;;19.90;80.20;;;;;;5071910;28;20021;-80
2023/07/03 02:58:36;;;;;;;23.83;10.25;;;19.90;80.30;;;;;;5044377;28;20025;-80
2023/07/03 03:01:02;;;;;;;20.73;9.70;;;19.90;80.30;;;;;;5063080;28;20055;-80
2023/07/03 03:03:29;;;;;;;21.10;8.82;;;19.90;80.40;;;;;;5064474;28;20074;-80
2023/07/03 03:05:55;;;;;;;21.02;9.15;;;19.90;80.40;;;;;;5062711;28;20493;-78
2023/07/03 03:08:22;;;;;;;20.48;9.45;;;19.90;80.40;;;;;;5067250;28;20050;-80
2023/07/03 03:10:48;;;;;;;23.67;9.00;;;19.90;80.30;;;;;;5063485;28;20025;-80
2023/07/03 03:13:14;;;;;;;25.42;9.85;;;19.90;80.40;;;;;;5065039;28;20452;-79
2023/07/03 03:15:40;;;;;;;25.02;9.60;;;19.90;80.40;;;;;;5065016;28;20024;-79
2023/07/03 03:18:06;;;;;;;20.58;9.57;;;19.90;80.30;;;;;;5060932;28;20013;-79
2023/07/03 03:20:31;;;;;;;27.38;9.50;;;19.90;80.30;;;;;;5060177;28;20389;-80
2023/07/03 03:22:57;;;;;;;26.05;9.48;;;19.90;80.20;;;;;;5061695;28;20108;-80
2023/07/03 03:25:23;;;;;;;25.95;9.02;;;19.90;80.20;;;;;;5070957;28;20028;-80
2023/07/03 03:27:49;;;;;;;17.65;8.82;;;19.90;80.10;;;;;;5072274;28;20107;-80
2023/07/03 03:30:14;;;;;;;22.02;9.60;;;19.90;80.20;;;;;;5071881;28;20509;-80
2023/07/03 03:32:40;;;;;;;21.60;9.13;;;19.90;80.10;;;;;;5068890;28;20147;-80
2023/07/03 03:35:06;;;;;;;24.08;9.55;;;19.90;80.10;;;;;;5065449;28;20067;-79
2023/07/03 03:37:32;;;;;;;20.92;9.02;;;19.90;80.10;;;;;;5057733;28;20060;-79
2023/07/03 03:39:57;;;;;;;22.23;9.18;;;19.90;80.10;;;;;;5067773;28;20075;-79
2023/07/03 03:42:23;;;;;;;22.73;9.27;;;19.90;80.20;;;;;;5076413;28;20024;-80
2023/07/03 03:44:48;;;;;;;23.92;9.73;;;19.90;80.20;;;;;;5070681;28;20080;-79
2023/07/03 03:47:14;;;;;;;25.48;10.35;;;19.90;80.20;;;;;;5067248;28;20027;-80
2023/07/03 03:49:40;;;;;;;22.85;9.23;;;19.90;80.30;;;;;;5064139;28;20025;-77
2023/07/03 03:52:06;;;;;;;23.30;10.13;;;19.90;80.30;;;;;;5064626;28;20095;-79
2023/07/03 03:54:31;;;;;;;22.65;9.20;;;19.90;80.30;;;;;;5061206;28;20040;-77
2023/07/03 03:56:57;;;;;;;21.83;9.27;;;19.90;80.40;;;;;;5063118;28;20075;-79
2023/07/03 03:59:23;;;;;;;28.27;10.38;;;20.00;80.40;;;;;;5069521;28;20020;-79
2023/07/03 04:01:49;;;;;;;22.67;9.90;;;19.90;80.30;;;;;;5073490;28;20045;-80
2023/07/03 04:04:15;;;;;;;26.70;8.90;;;19.90;80.30;;;;;;5065508;28;20094;-79
2023/07/03 04:06:41;;;;;;;21.05;9.02;;;19.90;80.30;;;;;;5058456;28;20021;-79
2023/07/03 04:09:07;;;;;;;25.15;9.50;;;19.90;80.30;;;;;;5060770;28;20020;-79
2023/07/03 04:11:34;;;;;;;23.90;9.27;;;19.90;81.00;;;;;;5058165;28;20082;-77
2023/07/03 04:14:00;;;;;;;27.90;10.15;;;19.90;80.40;;;;;;5062493;28;20036;-79
2023/07/03 04:16:28;;;;;;;21.27;8.77;;;19.90;80.30;;;;;;5078030;28;20023;-79
2023/07/03 04:18:54;;;;;;;27.83;9.38;;;19.90;80.30;;;;;;5063845;28;20041;-79
2023/07/03 04:21:20;;;;;;;25.80;9.85;;;19.90;80.40;;;;;;5038031;28;20041;-79
2023/07/03 04:23:47;;;;;;;24.23;9.48;;;19.90;80.30;;;;;;5034345;28;20022;-79
2023/07/03 04:26:12;;;;;;;31.45;9.70;;;19.90;80.40;;;;;;5035670;28;20060;-79
2023/07/03 04:28:38;;;;;;;25.58;9.80;;;19.90;80.40;;;;;;5048521;28;20057;-80
2023/07/03 04:31:04;;;;;;;31.10;10.93;;;19.90;80.40;;;;;;5028441;28;20086;-79
2023/07/03 04:33:29;;;;;;;27.25;9.88;;;19.90;80.40;;;;;;5040969;28;20108;-79
2023/07/03 04:35:55;;;;;;;19.75;9.45;;;19.90;80.40;;;;;;5036448;28;20025;-79
2023/07/03 04:38:23;;;;;;;22.33;9.50;;;19.90;80.40;;;;;;5036494;28;20021;-79
2023/07/03 04:40:51;;;;;;;23.13;10.38;;;19.90;80.40;;;;;;5016292;28;20650;-79
2023/07/03 04:43:17;;;;;;;30.50;10.10;;;19.90;80.40;;;;;;5045813;28;20021;-79
2023/07/03 04:45:48;;;;;;;22.20;9.18;;;19.90;80.40;;;;;;5047292;28;20047;-79
2023/07/03 04:48:16;;;;;;;24.02;9.95;;;19.90;80.30;;;;;;5041831;28;20395;-79
2023/07/03 04:50:42;;;;;;;27.95;9.50;;;19.90;80.40;;;;;;5039710;28;20058;-78
2023/07/03 04:53:08;;;;;;;21.17;9.82;;;19.90;80.40;;;;;;5038126;28;20428;-78
2023/07/03 04:55:34;;;;;;;25.70;9.65;;;19.90;80.40;;;;;;5038038;28;20024;-79
2023/07/03 04:58:00;;;;;;;24.20;9.38;;;19.90;80.50;;;;;;5025884;28;20038;-79
2023/07/03 05:00:28;;;;;;;23.23;9.00;;;19.90;80.50;;;;;;5045458;28;20390;-79
2023/07/03 05:03:02;;;;;;;28.90;9.45;;;19.80;80.40;;;;;;5039614;28;20025;-79
2023/07/03 05:05:28;;;;;;;23.23;10.35;;;19.80;80.50;;;;;;5043914;28;20104;-79
2023/07/03 05:07:54;;;;;;;26.05;9.30;;;19.80;80.40;;;;;;5042072;28;20534;-79
2023/07/03 05:10:21;;;;;;;28.25;9.85;;;19.80;80.40;;;;;;5041627;28;20034;-79
2023/07/03 05:12:47;;;;;;;24.67;9.88;;;19.80;80.40;;;;;;5042236;28;20040;-78
2023/07/03 05:15:15;;;;;;;26.20;8.93;;;19.90;80.40;;;;;;5039352;28;20382;-78
2023/07/03 05:17:41;;;;;;;20.05;8.35;;;19.90;80.50;;;;;;5042931;28;20051;-79
2023/07/03 05:20:08;;;;;;;22.60;9.35;;;19.90;80.50;;;;;;5044925;28;20033;-78
2023/07/03 05:22:36;;;;;;;26.50;10.00;;;19.90;80.50;;;;;;5041810;28;20045;-79
2023/07/03 05:25:02;;;;;;;24.77;9.02;;;19.90;80.50;;;;;;5039764;28;20424;-79
2023/07/03 05:27:28;;;;;;;27.58;9.43;;;19.90;80.50;;;;;;5041899;28;20025;-79
2023/07/03 05:29:53;;;;;;;27.08;9.90;;;19.90;80.60;;;;;;5041998;28;20516;-78
2023/07/03 05:32:19;;;;;;;24.20;9.43;;;19.90;80.70;;;;;;5041635;28;20029;-79
2023/07/03 05:34:44;;;;;;;21.08;8.32;;;19.90;80.70;;;;;;5041369;28;20381;-79
2023/07/03 05:37:10;;;;;;;20.60;9.18;;;19.90;80.80;;;;;;5018621;28;20052;-79
2023/07/03 05:39:36;;;;;;;25.17;9.50;;;19.90;80.80;;;;;;5039178;28;20064;-79
2023/07/03 05:42:01;;;;;;;20.23;8.70;;;19.90;81.60;;;;;;5038631;28;21768;-78
2023/07/03 05:44:27;;;;;;;22.52;9.25;;;19.90;81.00;;;;;;5039338;28;20486;-79
2023/07/03 05:46:53;;;;;;;24.05;9.43;;;19.90;81.00;;;;;;5032995;28;20031;-79
2023/07/03 05:49:18;;;;;;;22.50;8.60;;;19.90;81.10;;;;;;5034863;28;20033;-77
2023/07/03 05:51:44;;;;;;;23.90;8.02;;;19.90;80.90;;;;;;5041196;28;20457;-79
2023/07/03 05:54:10;;;;;;;24.83;8.70;;;19.90;81.00;;;;;;5036376;28;20556;-79
2023/07/03 05:56:35;;;;;;;29.65;7.93;;;19.90;81.10;;;;;;5024954;28;20075;-78
2023/07/03 05:59:01;;;;;;;26.40;8.57;;;19.90;81.10;;;;;;5043495;28;20111;-78
2023/07/03 06:01:28;;;;;;;21.08;8.35;;;19.90;81.10;;;;;;5042212;28;20021;-79
2023/07/03 06:03:53;;;;;;;18.25;8.65;;;19.90;81.10;;;;;;5037162;28;20018;-79
2023/07/03 06:06:19;;;;;;;20.25;8.45;;;19.90;81.10;;;;;;5039009;28;20030;-78
2023/07/03 06:08:48;;;;;;;25.60;9.48;;;19.90;81.10;;;;;;5039160;28;20032;-76
2023/07/03 06:11:13;;;;;;;25.25;7.65;;;19.90;81.10;;;;;;5044158;28;20053;-79
2023/07/03 06:13:39;;;;;;;27.50;9.90;;;19.90;81.20;;;;;;5041025;28;20037;-78
2023/07/03 06:16:04;;;;;;;23.33;8.60;;;19.80;81.10;;;;;;5040115;28;20026;-78
2023/07/03 06:18:30;;;;;;;22.38;8.93;;;19.90;81.20;;;;;;5039352;28;20156;-79
2023/07/03 06:20:56;;;;;;;25.58;9.80;;;19.90;81.20;;;;;;5034887;28;20034;-79
2023/07/03 06:23:21;;;;;;;24.02;8.60;;;19.90;81.20;;;;;;5039079;28;20033;-78
2023/07/03 06:25:47;;;;;;;22.88;9.50;;;19.90;81.20;;;;;;5040779;28;20025;-78
2023/07/03 06:28:13;;;;;;;23.10;8.48;;;19.90;81.20;;;;;;5044358;28;20475;-79
2023/07/03 06:30:38;;;;;;;21.23;8.60;;;19.90;81.30;;;;;;5044797;28;20432;-79
2023/07/03 06:33:04;;;;;;;18.77;8.32;;;19.90;81.30;;;;;;5027607;28;20466;-78
2023/07/03 06:35:30;;;;;;;19.75;9.32;;;19.90;81.40;;;;;;5037150;28;20501;-79
2023/07/03 06:37:58;;;;;;;20.60;7.88;;;19.90;81.50;;;;;;5039452;28;20017;-79
2023/07/03 06:40:24;;;;;;;19.65;8.55;;;19.90;81.50;;;;;;5038842;28;20048;-78
2023/07/03 06:42:51;;;;;;;17.42;8.35;;;19.90;81.50;;;;;;5046524;28;20017;-78
2023/07/03 06:45:17;;;;;;;20.27;7.70;;;19.90;81.50;;;;;;5024247;28;20033;-79
2023/07/03 06:47:43;;;;;;;18.70;8.35;;;19.90;81.60;;;;;;5043921;28;20013;-78
2023/07/03 06:50:09;;;;;;;21.40;7.97;;;19.90;81.70;;;;;;5040295;28;20021;-79
2023/07/03 06:52:36;;;;;;;24.63;8.80;;;19.90;81.80;;;;;;5039600;28;20144;-77
2023/07/03 06:55:03;;;;;;;19.30;8.02;;;19.90;81.70;;;;;;5039318;28;20019;-78
2023/07/03 06:57:29;;;;;;;21.95;7.38;;;19.90;81.80;;;;;;5036594;28;20537;-78
2023/07/03 06:59:54;;;;;;;25.65;7.97;;;19.90;81.80;;;;;;5044345;28;20021;-79
2023/07/03 07:02:20;;;;;;;15.32;6.95;;;19.90;82.00;;;;;;5039075;28;20033;-78
2023/07/03 07:04:45;;;;;;;16.45;7.50;;;19.90;82.00;;;;;;5039039;28;20037;-79
2023/07/03 07:07:11;;;;;;;16.90;7.55;;;19.90;81.90;;;;;;5033696;28;20053;-78
2023/07/03 07:09:36;;;;;;;20.85;7.80;;;19.90;81.90;;;;;;5034380;28;20608;-79
2023/07/03 07:12:02;;;;;;;12.85;6.55;;;19.90;82.20;;;;;;5041164;28;20037;-80
2023/07/03 07:14:28;;;;;;;18.88;6.95;;;19.90;82.10;;;;;;5046765;28;20482;-79
2023/07/03 07:16:53;;;;;;;20.98;7.10;;;19.90;82.30;;;;;;5038441;28;20025;-79
2023/07/03 07:19:19;;;;;;;17.33;7.38;;;19.90;82.60;;;;;;5047479;28;20473;-78
2023/07/03 07:21:44;;;;;;;16.70;6.78;;;19.90;82.30;;;;;;5058113;28;20025;-79
2023/07/03 07:24:19;;;;;;;14.63;6.90;;;19.90;82.30;;;;;;5056072;28;20021;-79
2023/07/03 07:26:46;;;;;;;16.52;6.65;;;19.90;82.50;;;;;;5063765;28;21230;-79
2023/07/03 07:29:12;;;;;;;22.17;7.30;;;19.90;82.60;;;;;;5065670;28;20066;-79
2023/07/03 07:31:38;;;;;;;14.13;6.88;;;19.90;82.60;;;;;;5065038;28;20440;-78
2023/07/03 07:34:05;;;;;;;11.57;5.90;;;19.90;82.80;;;;;;5049580;28;20075;-79
2023/07/03 07:36:32;;;;;;;18.27;6.68;;;19.90;82.80;;;;;;5058509;28;20065;-79
2023/07/03 07:38:59;;;;;;;14.27;6.05;;;19.90;82.90;;;;;;5057333;28;20031;-79
2023/07/03 07:41:25;;;;;;;14.45;5.53;;;19.90;83.00;;;;;;5059453;28;20056;-79
2023/07/03 07:43:51;;;;;;;11.85;6.55;;;19.90;82.70;;;;;;5064201;28;20036;-79
2023/07/03 07:46:18;;;;;;;13.57;6.55;;;19.90;82.90;;;;;;5068375;28;20020;-79
2023/07/03 07:48:45;;;;;;;22.00;6.95;;;19.90;83.10;;;;;;5065644;28;20044;-78
2023/07/03 07:51:11;;;;;;;15.18;6.35;;;19.90;83.30;;;;;;5062020;28;20066;-79
2023/07/03 07:53:37;;;;;;;13.52;5.82;;;19.90;83.00;;;;;;5059022;28;20622;-79
2023/07/03 07:56:05;;;;;;;15.20;5.53;;;19.90;83.10;;;;;;5064505;28;20024;-80
2023/07/03 07:58:31;;;;;;;18.65;6.38;;;20.00;83.20;;;;;;5061484;28;20025;-80
2023/07/03 08:00:57;;;;;;;15.82;6.40;;;20.00;83.30;;;;;;5064278;28;20047;-79
2023/07/03 08:03:23;;;;;;;14.10;6.93;;;20.00;83.20;;;;;;5067096;28;20020;-78
2023/07/03 08:05:49;;;;;;;18.95;6.80;;;20.00;83.20;;;;;;5061028;28;20373;-79
2023/07/03 08:08:15;;;;;;;15.65;5.97;;;20.00;83.20;;;;;;5061598;28;20020;-81
2023/07/03 08:10:41;;;;;;;13.63;6.30;;;20.00;82.80;;;;;;5059053;28;20067;-80
2023/07/03 08:13:07;;;;;;;22.38;5.20;;;20.00;82.80;;;;;;5064449;28;20572;-79
2023/07/03 08:15:32;;;;;;;16.45;6.57;;;20.00;82.80;;;;;;5061995;28;20029;-79
2023/07/03 08:17:58;;;;;;;15.27;5.90;;;20.10;82.40;;;;;;5063030;28;20020;-79
2023/07/03 08:20:24;;;;;;;21.70;6.32;;;20.10;82.80;;;;;;5050135;28;20478;-79
2023/07/03 08:22:49;;;;;;;16.38;6.38;;;20.10;82.50;;;;;;5043964;28;20028;-80
2023/07/03 08:25:16;;;;;;;19.25;6.07;;;20.10;82.50;;;;;;5043461;28;20456;-79
2023/07/03 08:27:47;;;;;;;15.20;6.20;;;20.10;82.20;;;;;;5045878;28;20029;-80
2023/07/03 08:30:13;;;;;;;18.73;6.07;;;20.10;82.20;;;;;;5045812;28;20028;-80
2023/07/03 08:32:40;;;;;;;14.57;6.53;;;20.10;82.50;;;;;;5046413;28;20039;-79
2023/07/03 08:35:07;;;;;;;15.85;6.50;;;20.10;82.60;;;;;;5040320;28;20936;-80
2023/07/03 08:37:33;;;;;;;19.08;5.90;;;20.10;82.70;;;;;;5043151;28;20075;-81
2023/07/03 08:40:01;;;;;;;15.65;6.00;;;20.10;82.80;;;;;;5043590;28;20021;-79
2023/07/03 08:42:45;;;;;;;17.63;5.20;;;20.10;82.80;;;;;;5043040;28;20028;-80
2023/07/03 08:45:14;;;;;;;11.48;5.05;;;20.10;82.70;;;;;;5039311;28;20039;-79
2023/07/03 08:47:41;;;;;;;12.73;5.27;;;20.10;83.00;;;;;;5037505;28;20063;-79
2023/07/03 08:50:08;;;;;;;12.02;5.85;;;20.10;82.70;;;;;;5042388;28;20029;-79
2023/07/03 08:52:42;;;;;;;11.57;5.25;;;20.10;83.00;;;;;;5042693;28;20128;-79
2023/07/03 08:55:18;;;;;;;12.75;4.88;;;20.10;83.10;;;;;;5041163;28;20033;-79
2023/07/03 08:57:44;;;;;;;12.85;4.43;;;20.10;83.20;;;;;;5044787;28;20024;-78
2023/07/03 09:00:11;;;;;;;11.32;4.75;;;20.10;83.20;;;;;;5026326;28;20381;-81
2023/07/03 09:02:45;;;;;;;13.88;5.00;;;20.10;83.00;;;;;;5038996;28;20017;-80
2023/07/03 09:05:36;;;;;;;13.23;5.32;;;20.00;83.00;;;;;;5043036;28;20067;-79
2023/07/03 09:08:06;;;;;;;23.88;6.13;;;20.10;83.20;;;;;;5026903;28;20037;-78
2023/07/03 09:10:46;;;;;;;8.98;4.80;;;20.00;83.20;;;;;;5043649;28;20013;-79
2023/07/03 09:13:30;;;;;;;14.88;4.60;;;20.10;83.30;;;;;;5043177;28;20040;-79
2023/07/03 09:16:06;;;;;;;17.00;5.50;;;20.10;83.10;;;;;;5039435;28;20504;-78
2023/07/03 09:18:42;;;;;;;14.80;4.60;;;20.10;83.10;;;;;;5017906;28;20021;-78
2023/07/03 09:21:08;;;;;;;12.27;4.95;;;20.10;83.90;;;;;;5041736;28;20029;-78
2023/07/03 09:24:14;;;;;;;11.48;4.55;;;20.10;83.00;;;;;;5042501;28;20047;-78
2023/07/03 09:26:49;;;;;;;12.55;4.57;;;20.10;83.10;;;;;;5043800;28;20013;-78
2023/07/03 09:29:15;;;;;;;15.38;4.70;;;20.10;83.30;;;;;;5047794;28;20025;-79
2023/07/03 09:31:41;;;;;;;14.65;4.63;;;20.10;83.30;;;;;;5028407;28;20121;-78
2023/07/03 09:34:06;;;;;;;12.82;4.60;;;20.10;83.30;;;;;;5049930;28;20107;-77
2023/07/03 09:36:37;;;;;;;15.48;4.65;;;20.10;83.30;;;;;;5029535;28;20115;-78
2023/07/03 09:39:17;;;;;;;12.88;4.35;;;20.10;83.30;;;;;;5036638;28;20384;-78
2023/07/03 09:41:42;;;;;;;15.18;4.10;;;20.10;83.20;;;;;;5037244;28;20029;-78
2023/07/03 09:44:12;;;;;;;12.38;4.70;;;20.10;83.10;;;;;;5043484;28;20029;-78
2023/07/03 09:46:38;;;;;;;14.02;4.70;;;20.10;83.20;;;;;;5046889;28;20044;-78
2023/07/03 09:49:08;;;;;;;14.18;4.47;;;20.10;83.30;;;;;;5046801;28;20017;-79
2023/07/03 09:51:36;;;;;;;10.15;3.58;;;20.10;83.30;;;;;;5044845;28;20095;-78
2023/07/03 09:54:19;;;;;;;11.27;4.00;;;20.10;83.10;;;;;;5044397;28;20026;-79
2023/07/03 09:56:46;;;;;;;14.52;4.75;;;20.10;82.90;;;;;;5042536;28;20541;-78
2023/07/03 09:59:14;;;;;;;12.00;4.30;;;20.10;83.10;;;;;;5050792;28;20028;-77
2023/07/03 10:01:39;;;;;;;18.77;4.55;;;20.10;83.00;;;;;;5048034;28;20017;-78
2023/07/03 10:04:07;;;;;;;23.13;5.18;;;20.10;82.80;;;;;;5052308;28;20097;-78
2023/07/03 10:06:35;;;;;;;19.17;5.88;;;20.10;82.70;;;;;;5048884;28;20035;-78
2023/07/03 10:09:05;;;;;;;13.55;4.72;;;20.10;82.70;;;;;;5049866;28;20026;-82
2023/07/03 10:11:40;;;;;;;;;;;20.20;82.60;;;;;;5054090;28;20025;-82
2023/07/03 10:14:10;;;;;;;15.07;4.18;;;20.20;79.30;;;;;;5054502;28;19953;-83
2023/07/03 10:16:36;;;;;;;;;;;20.20;76.90;;;;;;5038389;28;20028;-82
2023/07/03 10:19:03;;;;;;;13.15;4.47;;;20.30;74.30;;;;;;5050245;28;19967;-81
2023/07/03 10:21:30;;;;;;;9.60;3.78;;;20.30;72.90;;;;;;5028767;28;20371;-81
2023/07/03 10:23:58;;;;;;;11.40;5.13;;;20.40;73.10;;;;;;5020126;28;20025;-82
2023/07/03 10:26:31;;;;;;;12.90;4.80;;;20.40;72.40;;;;;;5021553;28;20024;-80
2023/07/03 10:29:11;;;;;;;14.43;4.97;;;20.30;72.90;;;;;;5022000;28;20030;-85
2023/07/03 10:31:54;;;;;;;13.75;4.53;;;20.30;71.40;;;;;;5026607;28;20096;-82
2023/07/03 10:34:28;;;;;;;17.83;4.30;;;20.30;70.70;;;;;;5040575;28;20720;-83
2023/07/03 10:37:05;;;;;;;21.50;6.32;;;20.40;70.70;;;;;;5041602;28;20033;-83
2023/07/03 10:39:52;;;;;;;13.80;4.85;;;20.50;70.10;;;;;;5021600;28;20229;-82
2023/07/03 10:42:30;;;;;;;16.90;4.57;;;20.60;70.00;;;;;;5027659;28;20021;-82
2023/07/03 10:45:08;;;;;;;13.45;4.13;;;20.60;70.10;;;;;;5042932;28;20450;-82
2023/07/03 10:48:00;;;;;;;13.80;5.15;;;20.70;70.60;;;;;;5025162;28;20017;-81
2023/07/03 10:50:36;;;;;;;18.85;4.97;;;20.70;69.00;;;;;;5035615;28;20075;-83
2023/07/03 10:53:15;;;;;;;16.50;4.55;;;20.60;69.30;;;;;;5042436;28;20068;-83
2023/07/03 10:56:14;;;;;;;17.50;4.75;;;20.70;70.00;;;;;;5024904;28;20036;-82
2023/07/03 10:59:05;;;;;;;12.70;4.88;;;20.70;70.00;;;;;;5017908;28;20036;-85
2023/07/03 11:02:08;;;;;;;12.98;4.68;;;20.60;70.60;;;;;;5025545;28;20052;-82
2023/07/03 11:04:54;;;;;;;17.33;7.00;;;20.60;71.30;;;;;;5046669;28;20036;-84
2023/07/03 11:07:24;;;;;;;17.27;4.57;;;20.60;68.40;;;;;;5044933;28;20028;-83
2023/07/03 11:09:59;;;;;;;27.00;8.70;;;20.70;68.50;;;;;;5042008;28;20053;-86
2023/07/03 11:12:47;;;;;;;20.35;6.40;;;20.70;68.80;;;;;;5024730;28;20028;-81
2023/07/03 11:15:13;;;;;;;51.15;19.13;;;20.80;68.10;;;;;;5040403;28;20061;-82
2023/07/03 11:18:17;;;;;;;31.10;12.50;;;20.80;68.30;;;;;;5042582;28;20047;-81
2023/07/03 11:21:00;;;;;;;279.30;127.10;;;20.80;67.00;;;;;;5024850;28;20152;-82
2023/07/03 11:23:58;;;;;;;55.10;24.55;;;20.70;68.20;;;;;;5025934;28;20026;-83
2023/07/03 11:26:41;;;;;;;33.45;11.00;;;20.60;67.60;;;;;;5045908;28;20481;-82
2023/07/03 11:29:09;;;;;;;23.75;10.88;;;20.50;68.20;;;;;;5024588;28;20014;-82
2023/07/03 11:31:38;;;;;;;19.38;7.75;;;20.40;67.20;;;;;;5032520;28;20470;-82
2023/07/03 11:34:10;;;;;;;21.27;7.40;;;20.40;67.30;;;;;;5048807;28;20069;-83
2023/07/03 11:36:46;;;;;;;15.18;6.22;;;20.40;67.20;;;;;;5047138;28;20751;-83
2023/07/03 11:39:33;;;;;;;49.25;22.10;;;20.40;68.00;;;;;;5031579;28;20021;-82
2023/07/03 11:42:01;;;;;;;14.20;5.07;;;20.40;67.30;;;;;;5026908;28;20054;-82
2023/07/03 11:44:42;;;;;;;16.08;6.07;;;20.40;67.90;;;;;;5042821;28;20028;-81
2023/07/03 11:47:12;;;;;;;19.05;5.70;;;20.50;68.10;;;;;;5043858;28;20778;-81
2023/07/03 11:49:58;;;;;;;12.63;5.47;;;20.50;68.40;;;;;;5023550;28;20422;-85
2023/07/03 11:52:30;;;;;;;15.10;5.05;;;20.50;68.20;;;;;;5026099;28;20033;-82
2023/07/03 11:55:06;;;;;;;10.65;4.70;;;20.50;68.00;;;;;;5033355;28;20025;-84
2023/07/03 11:57:45;;;;;;;17.05;5.03;;;20.50;68.30;;;;;;5026163;28;20040;-81
2023/07/03 12:00:27;;;;;;;13.98;4.63;;;20.50;68.70;;;;;;5027254;28;20030;-82
2023/07/03 12:03:04;;;;;;;12.95;4.63;;;20.40;68.80;;;;;;5046442;28;20063;-84
2023/07/03 12:05:42;;;;;;;15.38;6.13;;;20.40;69.00;;;;;;5040902;28;20032;-82
2023/07/03 12:08:38;;;;;;;17.35;4.57;;;20.30;68.70;;;;;;5043259;28;20078;-84
2023/07/03 12:11:05;;;;;;;15.50;4.55;;;20.40;67.90;;;;;;5021857;28;20030;-83
2023/07/03 12:13:41;;;;;;;10.80;3.53;;;20.50;67.60;;;;;;5033472;28;20125;-82
2023/07/03 12:16:22;;;;;;;21.25;5.20;;;20.50;66.60;;;;;;5021688;28;20021;-84
2023/07/03 12:19:04;;;;;;;11.52;4.00;;;20.60;67.30;;;;;;5038416;28;20066;-83
2023/07/03 12:21:39;;;;;;;13.80;3.78;;;20.70;67.90;;;;;;5047006;28;20028;-84
2023/07/03 12:24:27;;;;;;;19.05;5.10;;;20.70;67.20;;;;;;5045979;28;20028;-84
2023/07/03 12:27:04;;;;;;;14.48;4.35;;;20.60;67.00;;;;;;5065835;28;20023;-83
2023/07/03 12:29:32;;;;;;;15.18;4.10;;;20.60;67.80;;;;;;5062778;28;20314;-83
2023/07/03 12:32:07;;;;;;;11.80;4.50;;;20.60;67.60;;;;;;5049225;28;20032;-82
2023/07/03 12:34:41;;;;;;;12.05;4.72;;;20.60;67.70;;;;;;5061862;28;20036;-83
2023/07/03 12:37:24;;;;;;;13.00;4.70;;;20.50;67.90;;;;;;5061848;28;20052;-84
2023/07/03 12:39:50;;;;;;;17.05;4.10;;;20.50;68.50;;;;;;5046305;28;20385;-83
2023/07/03 12:42:22;;;;;;;10.10;3.72;;;20.60;67.70;;;;;;5046657;28;20396;-82
2023/07/03 12:44:49;;;;;;;11.93;4.47;;;20.70;67.90;;;;;;5060208;28;20016;-82
2023/07/03 12:47:17;;;;;;;12.52;4.38;;;20.70;68.40;;;;;;5044826;28;20078;-85